sensor_id;sensor_type;location;lat;lon;timestamp;temperature;humidity
28524;DHT22;15734;50.904;6.922;2023-09-19T00:01:07;16.30;99.90
28524;DHT22;15734;50.904;6.922;2023-09-19T00:03:34;16.30;99.90
28524;DHT22;15734;50.904;6.922;2023-09-19T00:06:03;16.30;99.90
28524;DHT22;15734;50.904;6.922;2023-09-19T00:08:30;16.30;99.90
28524;DHT22;15734;50.904;6.922;2023-09-19T00:10:56;16.30;99.90
28524;DHT22;15734;50.904;6.922;2023-09-19T00:13:21;16.30;99.90
28524;DHT22;15734;50.904;6.922;2023-09-19T00:15:48;16.30;99.90
28524;DHT22;15734;50.904;6.922;2023-09-19T00:18:14;16.30;99.90
28524;DHT22;15734;50.904;6.922;2023-09-19T00:20:41;16.30;99.90
28524;DHT22;15734;50.904;6.922;2023-09-19T00:23:07;16.20;99.90
28524;DHT22;15734;50.904;6.922;2023-09-19T00:25:36;16.20;99.90
28524;DHT22;15734;50.904;6.922;2023-09-19T00:28:03;16.20;99.90
28524;DHT22;15734;50.904;6.922;2023-09-19T00:30:29;16.20;99.90
28524;DHT22;15734;50.904;6.922;2023-09-19T00:32:54;16.20;99.90
28524;DHT22;15734;50.904;6.922;2023-09-19T00:35:23;16.20;99.90
28524;DHT22;15734;50.904;6.922;2023-09-19T00:37:52;16.10;99.90
28524;DHT22;15734;50.904;6.922;2023-09-19T00:40:19;16.20;99.90
28524;DHT22;15734;50.904;6.922;2023-09-19T00:42:45;16.20;99.90
28524;DHT22;15734;50.904;6.922;2023-09-19T00:45:13;16.20;99.90
28524;DHT22;15734;50.904;6.922;2023-09-19T00:47:41;16.10;99.90
28524;DHT22;15734;50.904;6.922;2023-09-19T00:50:08;16.20;99.90
28524;DHT22;15734;50.904;6.922;2023-09-19T00:52:35;16.10;99.90
28524;DHT22;15734;50.904;6.922;2023-09-19T00:55:05;16.10;99.90
28524;DHT22;15734;50.904;6.922;2023-09-19T00:57:32;16.10;99.90
28524;DHT22;15734;50.904;6.922;2023-09-19T00:59:58;16.10;99.90
28524;DHT22;15734;50.904;6.922;2023-09-19T01:02:24;16.10;99.90
28524;DHT22;15734;50.904;6.922;2023-09-19T01:04:52;16.20;99.90
28524;DHT22;15734;50.904;6.922;2023-09-19T01:07:19;16.20;99.90
28524;DHT22;15734;50.904;6.922;2023-09-19T01:09:44;16.20;99.90
28524;DHT22;15734;50.904;6.922;2023-09-19T01:12:12;16.30;99.90
28524;DHT22;15734;50.904;6.922;2023-09-19T01:14:54;16.30;99.90
28524;DHT22;15734;50.904;6.922;2023-09-19T01:23:28;16.40;99.90
28524;DHT22;15734;50.904;6.922;2023-09-19T01:26:10;16.40;99.90
28524;DHT22;15734;50.904;6.922;2023-09-19T01:28:52;16.40;99.90
28524;DHT22;15734;50.904;6.922;2023-09-19T01:31:23;16.40;99.90
28524;DHT22;15734;50.904;6.922;2023-09-19T01:33:57;16.40;99.90
28524;DHT22;15734;50.904;6.922;2023-09-19T01:36:26;16.40;99.90
28524;DHT22;15734;50.904;6.922;2023-09-19T01:38:52;16.30;99.90
28524;DHT22;15734;50.904;6.922;2023-09-19T01:41:26;16.30;99.90
28524;DHT22;15734;50.904;6.922;2023-09-19T01:43:55;16.30;99.90
28524;DHT22;15734;50.904;6.922;2023-09-19T01:46:25;16.30;99.90
28524;DHT22;15734;50.904;6.922;2023-09-19T01:52:09;16.30;99.90
28524;DHT22;15734;50.904;6.922;2023-09-19T01:54:51;16.30;99.90
28524;DHT22;15734;50.904;6.922;2023-09-19T01:57:34;16.30;99.90
28524;DHT22;15734;50.904;6.922;2023-09-19T02:00:06;16.30;99.90
28524;DHT22;15734;50.904;6.922;2023-09-19T02:02:40;16.20;99.90
28524;DHT22;15734;50.904;6.922;2023-09-19T02:05:07;16.20;99.90
28524;DHT22;15734;50.904;6.922;2023-09-19T02:07:33;16.20;99.90
28524;DHT22;15734;50.904;6.922;2023-09-19T02:09:59;16.20;99.90
28524;DHT22;15734;50.904;6.922;2023-09-19T02:12:30;16.20;99.90
28524;DHT22;15734;50.904;6.922;2023-09-19T02:14:56;16.20;99.90
28524;DHT22;15734;50.904;6.922;2023-09-19T02:17:22;16.20;99.90
28524;DHT22;15734;50.904;6.922;2023-09-19T02:19:54;16.10;99.90
28524;DHT22;15734;50.904;6.922;2023-09-19T04:00:04;16.10;99.90
28524;DHT22;15734;50.904;6.922;2023-09-19T04:02:30;15.40;99.90
28524;DHT22;15734;50.904;6.922;2023-09-19T04:04:58;15.30;99.90
28524;DHT22;15734;50.904;6.922;2023-09-19T04:07:24;15.30;99.90
28524;DHT22;15734;50.904;6.922;2023-09-19T04:09:51;15.30;99.90
28524;DHT22;15734;50.904;6.922;2023-09-19T04:12:19;15.30;99.90
28524;DHT22;15734;50.904;6.922;2023-09-19T04:14:44;15.30;99.90
28524;DHT22;15734;50.904;6.922;2023-09-19T04:17:10;15.20;99.90
28524;DHT22;15734;50.904;6.922;2023-09-19T04:19:36;15.20;99.90
28524;DHT22;15734;50.904;6.922;2023-09-19T04:22:02;15.30;99.90
28524;DHT22;15734;50.904;6.922;2023-09-19T04:24:28;15.30;99.90
28524;DHT22;15734;50.904;6.922;2023-09-19T04:26:54;15.30;99.90
28524;DHT22;15734;50.904;6.922;2023-09-19T04:29:19;15.30;99.90
28524;DHT22;15734;50.904;6.922;2023-09-19T04:31:45;15.20;99.90
28524;DHT22;15734;50.904;6.922;2023-09-19T04:34:11;15.20;99.90
28524;DHT22;15734;50.904;6.922;2023-09-19T04:36:42;15.10;99.90
28524;DHT22;15734;50.904;6.922;2023-09-19T04:39:09;15.10;99.90
28524;DHT22;15734;50.904;6.922;2023-09-19T04:41:36;15.10;99.90
28524;DHT22;15734;50.904;6.922;2023-09-19T04:44:05;15.20;99.90
28524;DHT22;15734;50.904;6.922;2023-09-19T04:46:30;15.20;99.90
28524;DHT22;15734;50.904;6.922;2023-09-19T04:48:56;15.20;99.90
28524;DHT22;15734;50.904;6.922;2023-09-19T04:51:21;15.20;99.90
28524;DHT22;15734;50.904;6.922;2023-09-19T04:53:47;15.20;99.90
28524;DHT22;15734;50.904;6.922;2023-09-19T04:56:13;15.20;99.90
28524;DHT22;15734;50.904;6.922;2023-09-19T04:58:39;15.10;99.90
28524;DHT22;15734;50.904;6.922;2023-09-19T05:01:04;15.10;99.90
28524;DHT22;15734;50.904;6.922;2023-09-19T05:03:30;15.10;99.90
28524;DHT22;15734;50.904;6.922;2023-09-19T05:05:55;15.20;99.90
28524;DHT22;15734;50.904;6.922;2023-09-19T05:08:21;15.20;99.90
28524;DHT22;15734;50.904;6.922;2023-09-19T05:10:47;15.20;99.90
28524;DHT22;15734;50.904;6.922;2023-09-19T05:13:14;15.10;99.90
28524;DHT22;15734;50.904;6.922;2023-09-19T05:15:40;15.20;99.90
28524;DHT22;15734;50.904;6.922;2023-09-19T05:18:05;15.10;99.90
28524;DHT22;15734;50.904;6.922;2023-09-19T05:20:32;15.10;99.90
28524;DHT22;15734;50.904;6.922;2023-09-19T05:22:59;15.00;99.90
28524;DHT22;15734;50.904;6.922;2023-09-19T05:25:35;15.00;99.90
28524;DHT22;15734;50.904;6.922;2023-09-19T05:28:05;15.00;99.90
28524;DHT22;15734;50.904;6.922;2023-09-19T05:30:32;15.00;99.90
28524;DHT22;15734;50.904;6.922;2023-09-19T05:32:58;14.90;99.90
28524;DHT22;15734;50.904;6.922;2023-09-19T05:35:24;15.00;99.90
28524;DHT22;15734;50.904;6.922;2023-09-19T05:37:53;15.00;99.90
28524;DHT22;15734;50.904;6.922;2023-09-19T05:40:20;14.90;99.90
28524;DHT22;15734;50.904;6.922;2023-09-19T05:42:46;14.90;99.90
28524;DHT22;15734;50.904;6.922;2023-09-19T05:45:13;14.90;99.90
28524;DHT22;15734;50.904;6.922;2023-09-19T05:47:39;14.90;99.90
28524;DHT22;15734;50.904;6.922;2023-09-19T05:50:07;14.90;99.90
28524;DHT22;15734;50.904;6.922;2023-09-19T05:52:37;14.90;99.90
28524;DHT22;15734;50.904;6.922;2023-09-19T05:55:04;14.90;99.90
28524;DHT22;15734;50.904;6.922;2023-09-19T05:57:32;14.90;99.90
28524;DHT22;15734;50.904;6.922;2023-09-19T05:59:58;15.00;99.90
28524;DHT22;15734;50.904;6.922;2023-09-19T06:02:23;14.90;99.90
28524;DHT22;15734;50.904;6.922;2023-09-19T06:04:52;14.90;99.90
28524;DHT22;15734;50.904;6.922;2023-09-19T06:07:18;14.90;99.90
28524;DHT22;15734;50.904;6.922;2023-09-19T06:09:44;14.90;99.90
28524;DHT22;15734;50.904;6.922;2023-09-19T06:12:09;15.00;99.90
28524;DHT22;15734;50.904;6.922;2023-09-19T06:14:35;15.00;99.90
28524;DHT22;15734;50.904;6.922;2023-09-19T06:17:00;15.00;99.90
28524;DHT22;15734;50.904;6.922;2023-09-19T06:19:26;15.00;99.90
28524;DHT22;15734;50.904;6.922;2023-09-19T06:21:52;15.00;99.90
28524;DHT22;15734;50.904;6.922;2023-09-19T06:24:19;15.00;99.90
28524;DHT22;15734;50.904;6.922;2023-09-19T06:26:46;15.00;99.90
28524;DHT22;15734;50.904;6.922;2023-09-19T06:29:13;15.00;99.90
28524;DHT22;15734;50.904;6.922;2023-09-19T06:31:39;15.10;99.90
28524;DHT22;15734;50.904;6.922;2023-09-19T06:34:05;15.20;99.90
28524;DHT22;15734;50.904;6.922;2023-09-19T06:36:30;15.20;99.90
28524;DHT22;15734;50.904;6.922;2023-09-19T06:38:56;15.20;99.90
28524;DHT22;15734;50.904;6.922;2023-09-19T06:41:21;15.30;99.90
28524;DHT22;15734;50.904;6.922;2023-09-19T06:43:50;15.30;99.90
28524;DHT22;15734;50.904;6.922;2023-09-19T06:46:18;15.30;99.90
28524;DHT22;15734;50.904;6.922;2023-09-19T06:48:44;15.30;99.90
28524;DHT22;15734;50.904;6.922;2023-09-19T06:51:10;15.40;99.90
28524;DHT22;15734;50.904;6.922;2023-09-19T06:53:35;15.40;99.90
28524;DHT22;15734;50.904;6.922;2023-09-19T06:56:02;15.50;99.90
28524;DHT22;15734;50.904;6.922;2023-09-19T06:58:27;15.50;99.90
28524;DHT22;15734;50.904;6.922;2023-09-19T07:00:53;15.50;99.90
28524;DHT22;15734;50.904;6.922;2023-09-19T07:03:19;15.70;99.90
28524;DHT22;15734;50.904;6.922;2023-09-19T07:05:48;15.70;99.90
28524;DHT22;15734;50.904;6.922;2023-09-19T07:08:14;15.70;99.90
28524;DHT22;15734;50.904;6.922;2023-09-19T07:10:41;15.70;99.90
28524;DHT22;15734;50.904;6.922;2023-09-19T07:13:08;15.80;99.90
28524;DHT22;15734;50.904;6.922;2023-09-19T07:15:38;15.90;99.90
28524;DHT22;15734;50.904;6.922;2023-09-19T07:18:07;15.90;99.90
28524;DHT22;15734;50.904;6.922;2023-09-19T07:20:36;15.90;99.90
28524;DHT22;15734;50.904;6.922;2023-09-19T07:23:01;16.00;99.90
28524;DHT22;15734;50.904;6.922;2023-09-19T07:25:28;16.00;99.90
28524;DHT22;15734;50.904;6.922;2023-09-19T07:28:00;16.00;99.90
28524;DHT22;15734;50.904;6.922;2023-09-19T07:30:26;16.10;99.90
28524;DHT22;15734;50.904;6.922;2023-09-19T07:32:52;16.20;99.90
28524;DHT22;15734;50.904;6.922;2023-09-19T07:35:18;16.20;99.90
28524;DHT22;15734;50.904;6.922;2023-09-19T07:37:48;16.30;99.90
28524;DHT22;15734;50.904;6.922;2023-09-19T07:40:15;16.30;99.90
28524;DHT22;15734;50.904;6.922;2023-09-19T07:42:40;16.30;99.90
28524;DHT22;15734;50.904;6.922;2023-09-19T07:45:09;16.40;99.90
28524;DHT22;15734;50.904;6.922;2023-09-19T07:47:49;16.40;99.90
28524;DHT22;15734;50.904;6.922;2023-09-19T07:50:15;16.40;99.90
28524;DHT22;15734;50.904;6.922;2023-09-19T07:52:42;16.50;99.90
28524;DHT22;15734;50.904;6.922;2023-09-19T07:55:08;16.60;99.90
28524;DHT22;15734;50.904;6.922;2023-09-19T07:57:41;16.60;99.90
28524;DHT22;15734;50.904;6.922;2023-09-19T08:00:08;16.70;99.90
28524;DHT22;15734;50.904;6.922;2023-09-19T08:02:36;16.70;99.90
28524;DHT22;15734;50.904;6.922;2023-09-19T08:05:03;16.80;99.90
28524;DHT22;15734;50.904;6.922;2023-09-19T08:07:32;16.80;99.90
28524;DHT22;15734;50.904;6.922;2023-09-19T08:09:57;16.90;99.90
28524;DHT22;15734;50.904;6.922;2023-09-19T08:12:24;17.00;99.90
28524;DHT22;15734;50.904;6.922;2023-09-19T08:14:49;17.10;99.90
28524;DHT22;15734;50.904;6.922;2023-09-19T08:17:16;17.10;99.90
28524;DHT22;15734;50.904;6.922;2023-09-19T08:19:41;17.20;99.90
28524;DHT22;15734;50.904;6.922;2023-09-19T08:22:07;17.10;99.90
28524;DHT22;15734;50.904;6.922;2023-09-19T08:24:36;17.20;99.90
28524;DHT22;15734;50.904;6.922;2023-09-19T08:27:03;17.30;99.90
28524;DHT22;15734;50.904;6.922;2023-09-19T08:29:30;17.40;99.90
28524;DHT22;15734;50.904;6.922;2023-09-19T08:31:56;17.50;99.90
28524;DHT22;15734;50.904;6.922;2023-09-19T08:34:26;17.60;99.90
28524;DHT22;15734;50.904;6.922;2023-09-19T08:36:55;17.70;99.90
28524;DHT22;15734;50.904;6.922;2023-09-19T08:39:24;17.70;99.90
28524;DHT22;15734;50.904;6.922;2023-09-19T08:41:57;17.70;99.90
28524;DHT22;15734;50.904;6.922;2023-09-19T08:44:24;17.80;99.90
28524;DHT22;15734;50.904;6.922;2023-09-19T08:46:54;17.80;99.90
28524;DHT22;15734;50.904;6.922;2023-09-19T08:52:16;17.80;99.90
28524;DHT22;15734;50.904;6.922;2023-09-19T08:54:47;17.90;99.90
28524;DHT22;15734;50.904;6.922;2023-09-19T08:57:15;18.00;99.90
28524;DHT22;15734;50.904;6.922;2023-09-19T08:59:50;18.00;99.90
28524;DHT22;15734;50.904;6.922;2023-09-19T09:02:16;18.00;99.90
28524;DHT22;15734;50.904;6.922;2023-09-19T09:04:45;18.20;99.90
28524;DHT22;15734;50.904;6.922;2023-09-19T09:07:12;18.30;99.90
28524;DHT22;15734;50.904;6.922;2023-09-19T09:09:44;18.40;99.90
28524;DHT22;15734;50.904;6.922;2023-09-19T09:12:14;18.50;99.90
28524;DHT22;15734;50.904;6.922;2023-09-19T09:14:47;18.50;99.90
28524;DHT22;15734;50.904;6.922;2023-09-19T09:17:16;18.30;99.90
28524;DHT22;15734;50.904;6.922;2023-09-19T09:19:46;18.40;99.90
28524;DHT22;15734;50.904;6.922;2023-09-19T09:22:12;18.30;99.90
28524;DHT22;15734;50.904;6.922;2023-09-19T09:24:58;18.40;99.90
28524;DHT22;15734;50.904;6.922;2023-09-19T09:27:24;18.50;99.90
28524;DHT22;15734;50.904;6.922;2023-09-19T09:29:51;18.50;99.90
28524;DHT22;15734;50.904;6.922;2023-09-19T09:32:37;18.70;99.90
28524;DHT22;15734;50.904;6.922;2023-09-19T09:35:07;18.70;99.90
28524;DHT22;15734;50.904;6.922;2023-09-19T09:37:36;18.80;99.90
28524;DHT22;15734;50.904;6.922;2023-09-19T09:40:04;19.00;99.90
28524;DHT22;15734;50.904;6.922;2023-09-19T09:42:39;19.00;99.90
28524;DHT22;15734;50.904;6.922;2023-09-19T09:45:13;19.00;99.90
28524;DHT22;15734;50.904;6.922;2023-09-19T09:47:47;18.90;99.90
28524;DHT22;15734;50.904;6.922;2023-09-19T09:50:33;19.00;99.90
28524;DHT22;15734;50.904;6.922;2023-09-19T09:53:31;19.10;99.90
28524;DHT22;15734;50.904;6.922;2023-09-19T09:58:26;19.20;99.90
28524;DHT22;15734;50.904;6.922;2023-09-19T10:00:56;19.20;99.90
28524;DHT22;15734;50.904;6.922;2023-09-19T10:03:37;19.30;99.90
28524;DHT22;15734;50.904;6.922;2023-09-19T10:06:13;19.20;99.90
28524;DHT22;15734;50.904;6.922;2023-09-19T10:09:17;19.20;99.90
28524;DHT22;15734;50.904;6.922;2023-09-19T10:12:07;19.30;99.90
28524;DHT22;15734;50.904;6.922;2023-09-19T10:14:38;19.60;99.90
28524;DHT22;15734;50.904;6.922;2023-09-19T10:17:05;19.70;99.90
28524;DHT22;15734;50.904;6.922;2023-09-19T10:19:37;20.00;99.90
28524;DHT22;15734;50.904;6.922;2023-09-19T10:22:12;20.30;99.90
28524;DHT22;15734;50.904;6.922;2023-09-19T10:24:40;20.40;99.90
28524;DHT22;15734;50.904;6.922;2023-09-19T10:27:06;20.30;99.90
28524;DHT22;15734;50.904;6.922;2023-09-19T10:29:36;20.40;99.90
28524;DHT22;15734;50.904;6.922;2023-09-19T10:32:05;20.50;99.90
28524;DHT22;15734;50.904;6.922;2023-09-19T10:34:35;20.50;99.90
28524;DHT22;15734;50.904;6.922;2023-09-19T10:37:02;20.50;99.90
28524;DHT22;15734;50.904;6.922;2023-09-19T10:39:32;20.40;99.90
28524;DHT22;15734;50.904;6.922;2023-09-19T10:42:01;20.40;99.90
28524;DHT22;15734;50.904;6.922;2023-09-19T10:44:32;20.70;99.90
28524;DHT22;15734;50.904;6.922;2023-09-19T10:46:58;20.90;99.90
28524;DHT22;15734;50.904;6.922;2023-09-19T10:49:24;20.70;99.90
28524;DHT22;15734;50.904;6.922;2023-09-19T10:51:52;20.70;99.90
28524;DHT22;15734;50.904;6.922;2023-09-19T10:54:23;20.80;99.90
28524;DHT22;15734;50.904;6.922;2023-09-19T10:56:53;20.90;99.90
28524;DHT22;15734;50.904;6.922;2023-09-19T10:59:20;20.90;99.90
28524;DHT22;15734;50.904;6.922;2023-09-19T11:01:55;20.70;99.90
28524;DHT22;15734;50.904;6.922;2023-09-19T11:04:31;20.80;99.90
28524;DHT22;15734;50.904;6.922;2023-09-19T11:07:03;20.60;99.90
28524;DHT22;15734;50.904;6.922;2023-09-19T11:26:50;21.00;99.90
28524;DHT22;15734;50.904;6.922;2023-09-19T11:29:30;21.30;99.90
28524;DHT22;15734;50.904;6.922;2023-09-19T11:31:57;21.50;99.90
28524;DHT22;15734;50.904;6.922;2023-09-19T11:37:59;21.10;99.90
28524;DHT22;15734;50.904;6.922;2023-09-19T11:40:09;21.00;99.90
28524;DHT22;15734;50.904;6.922;2023-09-19T11:42:42;21.00;99.90
28524;DHT22;15734;50.904;6.922;2023-09-19T11:48:05;21.30;99.90
28524;DHT22;15734;50.904;6.922;2023-09-19T11:50:32;21.80;99.90
28524;DHT22;15734;50.904;6.922;2023-09-19T11:53:00;21.90;99.90
28524;DHT22;15734;50.904;6.922;2023-09-19T11:55:28;21.90;99.90
28524;DHT22;15734;50.904;6.922;2023-09-19T11:57:56;22.20;99.90
28524;DHT22;15734;50.904;6.922;2023-09-19T12:00:22;21.90;99.90
28524;DHT22;15734;50.904;6.922;2023-09-19T12:02:54;21.80;99.90
28524;DHT22;15734;50.904;6.922;2023-09-19T12:05:30;22.20;99.90
28524;DHT22;15734;50.904;6.922;2023-09-19T12:07:58;22.20;99.90
28524;DHT22;15734;50.904;6.922;2023-09-19T12:10:24;22.40;99.90
28524;DHT22;15734;50.904;6.922;2023-09-19T12:12:50;22.70;99.90
28524;DHT22;15734;50.904;6.922;2023-09-19T12:15:23;23.10;99.90
28524;DHT22;15734;50.904;6.922;2023-09-19T12:17:54;23.30;99.90
28524;DHT22;15734;50.904;6.922;2023-09-19T12:20:19;22.70;99.90
28524;DHT22;15734;50.904;6.922;2023-09-19T12:22:47;22.90;99.90
28524;DHT22;15734;50.904;6.922;2023-09-19T12:25:15;23.00;99.80
28524;DHT22;15734;50.904;6.922;2023-09-19T12:27:49;23.20;98.70
28524;DHT22;15734;50.904;6.922;2023-09-19T12:30:18;23.00;98.10
28524;DHT22;15734;50.904;6.922;2023-09-19T12:32:46;23.20;98.50
28524;DHT22;15734;50.904;6.922;2023-09-19T12:35:31;23.30;97.60
28524;DHT22;15734;50.904;6.922;2023-09-19T12:38:00;23.20;96.60
28524;DHT22;15734;50.904;6.922;2023-09-19T12:40:26;23.00;96.00
28524;DHT22;15734;50.904;6.922;2023-09-19T12:42:54;23.20;97.00
28524;DHT22;15734;50.904;6.922;2023-09-19T12:45:28;23.30;96.30
28524;DHT22;15734;50.904;6.922;2023-09-19T12:48:25;23.20;96.40
28524;DHT22;15734;50.904;6.922;2023-09-19T12:53:43;23.60;96.00
28524;DHT22;15734;50.904;6.922;2023-09-19T12:56:10;23.30;95.60
28524;DHT22;15734;50.904;6.922;2023-09-19T12:58:55;23.20;94.80
28524;DHT22;15734;50.904;6.922;2023-09-19T13:01:22;23.20;95.50
28524;DHT22;15734;50.904;6.922;2023-09-19T13:06:38;23.30;96.20
28524;DHT22;15734;50.904;6.922;2023-09-19T13:09:12;23.00;95.80
28524;DHT22;15734;50.904;6.922;2023-09-19T13:11:40;23.40;96.30
28524;DHT22;15734;50.904;6.922;2023-09-19T13:14:18;23.20;95.50
28524;DHT22;15734;50.904;6.922;2023-09-19T13:17:04;22.70;96.30
28524;DHT22;15734;50.904;6.922;2023-09-19T13:19:36;22.90;97.80
28524;DHT22;15734;50.904;6.922;2023-09-19T13:22:04;22.80;96.80
28524;DHT22;15734;50.904;6.922;2023-09-19T13:24:29;22.90;97.20
28524;DHT22;15734;50.904;6.922;2023-09-19T13:26:56;23.20;98.00
28524;DHT22;15734;50.904;6.922;2023-09-19T13:29:22;23.40;97.00
28524;DHT22;15734;50.904;6.922;2023-09-19T13:31:52;23.80;98.10
28524;DHT22;15734;50.904;6.922;2023-09-19T13:34:18;23.50;96.70
28524;DHT22;15734;50.904;6.922;2023-09-19T13:36:44;23.50;99.10
28524;DHT22;15734;50.904;6.922;2023-09-19T13:39:10;23.60;98.90
28524;DHT22;15734;50.904;6.922;2023-09-19T13:41:38;23.80;97.90
28524;DHT22;15734;50.904;6.922;2023-09-19T13:44:04;23.40;98.10
28524;DHT22;15734;50.904;6.922;2023-09-19T13:46:30;23.30;98.60
28524;DHT22;15734;50.904;6.922;2023-09-19T13:49:00;23.30;98.70
28524;DHT22;15734;50.904;6.922;2023-09-19T13:51:29;23.20;98.70
28524;DHT22;15734;50.904;6.922;2023-09-19T13:53:55;23.50;98.70
28524;DHT22;15734;50.904;6.922;2023-09-19T13:56:21;23.30;98.20
28524;DHT22;15734;50.904;6.922;2023-09-19T13:58:47;23.50;99.20
28524;DHT22;15734;50.904;6.922;2023-09-19T14:01:12;23.70;97.40
28524;DHT22;15734;50.904;6.922;2023-09-19T14:03:41;23.80;96.80
28524;DHT22;15734;50.904;6.922;2023-09-19T14:06:21;23.80;97.60
28524;DHT22;15734;50.904;6.922;2023-09-19T14:08:47;24.00;96.60
28524;DHT22;15734;50.904;6.922;2023-09-19T14:11:13;23.80;97.30
28524;DHT22;15734;50.904;6.922;2023-09-19T14:13:39;23.70;97.00
28524;DHT22;15734;50.904;6.922;2023-09-19T14:16:06;23.40;97.40
28524;DHT22;15734;50.904;6.922;2023-09-19T14:18:34;23.00;99.00
28524;DHT22;15734;50.904;6.922;2023-09-19T14:21:03;22.80;99.50
28524;DHT22;15734;50.904;6.922;2023-09-19T14:23:29;22.60;98.90
28524;DHT22;15734;50.904;6.922;2023-09-19T14:26:01;22.30;99.70
28524;DHT22;15734;50.904;6.922;2023-09-19T14:28:26;22.20;99.90
28524;DHT22;15734;50.904;6.922;2023-09-19T14:30:52;22.10;99.90
28524;DHT22;15734;50.904;6.922;2023-09-19T14:33:18;22.00;99.90
28524;DHT22;15734;50.904;6.922;2023-09-19T14:35:43;21.90;99.90
28524;DHT22;15734;50.904;6.922;2023-09-19T14:38:09;21.90;99.90
28524;DHT22;15734;50.904;6.922;2023-09-19T14:40:34;21.80;99.90
28524;DHT22;15734;50.904;6.922;2023-09-19T14:43:01;21.70;99.90
28524;DHT22;15734;50.904;6.922;2023-09-19T14:45:27;21.80;99.90
28524;DHT22;15734;50.904;6.922;2023-09-19T14:47:53;21.90;99.90
28524;DHT22;15734;50.904;6.922;2023-09-19T14:50:21;21.90;99.90
28524;DHT22;15734;50.904;6.922;2023-09-19T14:52:47;22.00;99.90
28524;DHT22;15734;50.904;6.922;2023-09-19T14:55:14;21.90;99.90
28524;DHT22;15734;50.904;6.922;2023-09-19T14:57:41;21.80;99.90
28524;DHT22;15734;50.904;6.922;2023-09-19T15:00:10;21.80;99.90
28524;DHT22;15734;50.904;6.922;2023-09-19T15:02:38;21.80;99.90
28524;DHT22;15734;50.904;6.922;2023-09-19T15:05:05;21.60;99.90
28524;DHT22;15734;50.904;6.922;2023-09-19T15:07:32;21.70;99.90
28524;DHT22;15734;50.904;6.922;2023-09-19T15:09:57;21.70;99.90
28524;DHT22;15734;50.904;6.922;2023-09-19T15:12:23;21.60;99.90
28524;DHT22;15734;50.904;6.922;2023-09-19T15:14:48;21.50;99.90
28524;DHT22;15734;50.904;6.922;2023-09-19T15:17:14;21.50;99.90
28524;DHT22;15734;50.904;6.922;2023-09-19T15:19:40;21.30;99.90
28524;DHT22;15734;50.904;6.922;2023-09-19T15:22:06;21.20;99.90
28524;DHT22;15734;50.904;6.922;2023-09-19T15:24:31;21.20;99.90
28524;DHT22;15734;50.904;6.922;2023-09-19T15:26:57;21.00;99.90
28524;DHT22;15734;50.904;6.922;2023-09-19T15:29:23;20.90;99.90
28524;DHT22;15734;50.904;6.922;2023-09-19T15:31:48;21.00;99.90
28524;DHT22;15734;50.904;6.922;2023-09-19T15:34:14;21.00;99.90
28524;DHT22;15734;50.904;6.922;2023-09-19T15:36:41;21.00;99.90
28524;DHT22;15734;50.904;6.922;2023-09-19T15:39:07;21.00;99.90
28524;DHT22;15734;50.904;6.922;2023-09-19T15:41:38;21.00;99.90
28524;DHT22;15734;50.904;6.922;2023-09-19T15:44:04;20.90;99.90
28524;DHT22;15734;50.904;6.922;2023-09-19T15:46:31;20.90;99.90
28524;DHT22;15734;50.904;6.922;2023-09-19T15:49:00;21.00;99.90
28524;DHT22;15734;50.904;6.922;2023-09-19T15:51:26;21.00;99.90
28524;DHT22;15734;50.904;6.922;2023-09-19T15:53:53;21.00;99.90
28524;DHT22;15734;50.904;6.922;2023-09-19T15:56:20;21.00;99.90
28524;DHT22;15734;50.904;6.922;2023-09-19T15:58:50;20.90;99.90
28524;DHT22;15734;50.904;6.922;2023-09-19T16:01:16;20.90;99.90
28524;DHT22;15734;50.904;6.922;2023-09-19T16:03:50;20.90;99.90
28524;DHT22;15734;50.904;6.922;2023-09-19T16:06:19;21.00;99.90
28524;DHT22;15734;50.904;6.922;2023-09-19T16:08:46;21.00;99.90
28524;DHT22;15734;50.904;6.922;2023-09-19T16:11:12;21.00;99.90
28524;DHT22;15734;50.904;6.922;2023-09-19T16:13:39;21.10;99.90
28524;DHT22;15734;50.904;6.922;2023-09-19T16:16:07;21.10;99.90
28524;DHT22;15734;50.904;6.922;2023-09-19T16:18:33;20.90;99.90
28524;DHT22;15734;50.904;6.922;2023-09-19T16:21:03;21.00;99.90
28524;DHT22;15734;50.904;6.922;2023-09-19T16:23:30;20.90;99.90
28524;DHT22;15734;50.904;6.922;2023-09-19T16:26:05;20.80;99.90
28524;DHT22;15734;50.904;6.922;2023-09-19T16:28:32;20.80;99.90
28524;DHT22;15734;50.904;6.922;2023-09-19T16:31:00;20.70;99.90
28524;DHT22;15734;50.904;6.922;2023-09-19T16:33:25;20.70;99.90
28524;DHT22;15734;50.904;6.922;2023-09-19T16:35:52;20.60;99.90
28524;DHT22;15734;50.904;6.922;2023-09-19T16:38:18;20.50;99.90
28524;DHT22;15734;50.904;6.922;2023-09-19T16:40:54;20.50;99.90
28524;DHT22;15734;50.904;6.922;2023-09-19T16:43:21;20.50;99.90
28524;DHT22;15734;50.904;6.922;2023-09-19T16:45:57;20.50;99.90
28524;DHT22;15734;50.904;6.922;2023-09-19T16:48:23;20.40;99.90
28524;DHT22;15734;50.904;6.922;2023-09-19T16:50:51;20.40;99.90
28524;DHT22;15734;50.904;6.922;2023-09-19T16:53:17;20.40;99.90
28524;DHT22;15734;50.904;6.922;2023-09-19T16:55:46;20.40;99.90
28524;DHT22;15734;50.904;6.922;2023-09-19T16:58:13;20.40;99.90
28524;DHT22;15734;50.904;6.922;2023-09-19T17:00:38;20.40;99.90
28524;DHT22;15734;50.904;6.922;2023-09-19T17:03:05;20.30;99.90
28524;DHT22;15734;50.904;6.922;2023-09-19T17:05:31;20.30;99.90
28524;DHT22;15734;50.904;6.922;2023-09-19T17:07:57;20.20;99.90
28524;DHT22;15734;50.904;6.922;2023-09-19T17:10:24;20.20;99.90
28524;DHT22;15734;50.904;6.922;2023-09-19T17:12:53;20.10;99.90
28524;DHT22;15734;50.904;6.922;2023-09-19T17:15:20;20.10;99.90
28524;DHT22;15734;50.904;6.922;2023-09-19T17:17:46;20.00;99.90
28524;DHT22;15734;50.904;6.922;2023-09-19T17:20:12;20.00;99.90
28524;DHT22;15734;50.904;6.922;2023-09-19T17:22:37;20.00;99.90
28524;DHT22;15734;50.904;6.922;2023-09-19T17:25:03;20.00;99.90
28524;DHT22;15734;50.904;6.922;2023-09-19T17:27:29;20.00;99.90
28524;DHT22;15734;50.904;6.922;2023-09-19T17:29:56;20.10;99.90
28524;DHT22;15734;50.904;6.922;2023-09-19T17:32:21;20.00;99.90
28524;DHT22;15734;50.904;6.922;2023-09-19T17:34:47;20.00;99.90
28524;DHT22;15734;50.904;6.922;2023-09-19T17:37:15;19.90;99.90
28524;DHT22;15734;50.904;6.922;2023-09-19T17:39:40;19.90;99.90
28524;DHT22;15734;50.904;6.922;2023-09-19T17:42:06;19.80;99.90
28524;DHT22;15734;50.904;6.922;2023-09-19T17:44:31;19.80;99.90
28524;DHT22;15734;50.904;6.922;2023-09-19T17:47:00;19.70;99.90
28524;DHT22;15734;50.904;6.922;2023-09-19T17:49:26;19.70;99.90
28524;DHT22;15734;50.904;6.922;2023-09-19T17:51:52;19.70;99.90
28524;DHT22;15734;50.904;6.922;2023-09-19T17:54:18;19.60;99.90
28524;DHT22;15734;50.904;6.922;2023-09-19T17:56:44;19.60;99.90
28524;DHT22;15734;50.904;6.922;2023-09-19T17:59:09;19.60;99.90